sensor_id;sensor_type;location;lat;lon;timestamp;pressure;altitude;pressure_sealevel;temperature;humidity
9935;BME280;5006;41.828;23.478;2024-01-11T00:00:30;90900.03;;;4.42;73.35
9935;BME280;5006;41.828;23.478;2024-01-11T00:01:36;90905.31;;;4.42;74.16
9935;BME280;5006;41.828;23.478;2024-01-11T00:02:41;90900.50;;;4.71;74.44
9935;BME280;5006;41.828;23.478;2024-01-11T00:03:48;90897.75;;;4.68;74.06
9935;BME280;5006;41.828;23.478;2024-01-11T00:04:53;90893.81;;;4.50;73.44
9935;BME280;5006;41.828;23.478;2024-01-11T00:06:01;90903.34;;;3.67;73.95
9935;BME280;5006;41.828;23.478;2024-01-11T00:07:07;90896.28;;;3.95;74.99
9935;BME280;5006;41.828;23.478;2024-01-11T00:08:32;90900.59;;;4.12;74.52
9935;BME280;5006;41.828;23.478;2024-01-11T00:09:39;90895.72;;;4.25;73.81
9935;BME280;5006;41.828;23.478;2024-01-11T00:10:46;90891.97;;;4.26;74.65
9935;BME280;5006;41.828;23.478;2024-01-11T00:11:53;90896.63;;;4.29;73.72
9935;BME280;5006;41.828;23.478;2024-01-11T00:13:00;90899.13;;;4.50;73.42
9935;BME280;5006;41.828;23.478;2024-01-11T00:14:05;90899.44;;;5.00;72.99
9935;BME280;5006;41.828;23.478;2024-01-11T00:15:13;90892.97;;;5.13;71.72
9935;BME280;5006;41.828;23.478;2024-01-11T00:16:18;90892.56;;;4.99;72.16
9935;BME280;5006;41.828;23.478;2024-01-11T00:17:24;90894.13;;;4.60;72.66
9935;BME280;5006;41.828;23.478;2024-01-11T00:18:30;90893.94;;;4.81;72.54
9935;BME280;5006;41.828;23.478;2024-01-11T00:19:37;90891.31;;;4.18;72.23
9935;BME280;5006;41.828;23.478;2024-01-11T00:20:42;90894.09;;;4.09;73.92
9935;BME280;5006;41.828;23.478;2024-01-11T00:21:48;90893.63;;;4.31;73.08
9935;BME280;5006;41.828;23.478;2024-01-11T00:22:53;90886.47;;;4.19;73.52
9935;BME280;5006;41.828;23.478;2024-01-11T00:23:59;90880.16;;;3.76;76.72
9935;BME280;5006;41.828;23.478;2024-01-11T00:25:06;90884.38;;;3.89;77.89
9935;BME280;5006;41.828;23.478;2024-01-11T00:26:13;90885.16;;;3.90;76.70
9935;BME280;5006;41.828;23.478;2024-01-11T00:27:20;90875.28;;;3.54;78.01
9935;BME280;5006;41.828;23.478;2024-01-11T00:28:26;90879.59;;;3.02;79.58
9935;BME280;5006;41.828;23.478;2024-01-11T00:29:32;90877.38;;;3.04;81.68
9935;BME280;5006;41.828;23.478;2024-01-11T00:30:37;90880.53;;;3.30;81.12
9935;BME280;5006;41.828;23.478;2024-01-11T00:31:44;90879.56;;;3.35;81.73
9935;BME280;5006;41.828;23.478;2024-01-11T00:32:51;90880.09;;;3.28;81.47
9935;BME280;5006;41.828;23.478;2024-01-11T00:33:58;90876.28;;;3.74;80.40
9935;BME280;5006;41.828;23.478;2024-01-11T00:35:04;90872.97;;;3.89;80.88
9935;BME280;5006;41.828;23.478;2024-01-11T00:36:10;90874.19;;;4.15;78.76
9935;BME280;5006;41.828;23.478;2024-01-11T00:37:16;90870.53;;;4.08;77.33
9935;BME280;5006;41.828;23.478;2024-01-11T00:38:22;90867.44;;;4.29;78.59
9935;BME280;5006;41.828;23.478;2024-01-11T00:39:27;90870.66;;;4.11;79.78
9935;BME280;5006;41.828;23.478;2024-01-11T00:40:34;90863.56;;;4.15;80.04
9935;BME280;5006;41.828;23.478;2024-01-11T00:41:40;90862.22;;;4.21;80.12
9935;BME280;5006;41.828;23.478;2024-01-11T00:42:48;90867.75;;;4.16;79.19
9935;BME280;5006;41.828;23.478;2024-01-11T00:43:54;90865.50;;;4.42;78.04
9935;BME280;5006;41.828;23.478;2024-01-11T00:45:00;90863.09;;;4.37;76.62
9935;BME280;5006;41.828;23.478;2024-01-11T00:46:05;90865.63;;;4.45;76.64
9935;BME280;5006;41.828;23.478;2024-01-11T00:47:12;90863.66;;;4.30;76.95
9935;BME280;5006;41.828;23.478;2024-01-11T00:48:18;90862.16;;;4.57;77.86
9935;BME280;5006;41.828;23.478;2024-01-11T00:49:26;90862.06;;;4.53;79.96
9935;BME280;5006;41.828;23.478;2024-01-11T00:50:31;90859.13;;;4.07;80.54
9935;BME280;5006;41.828;23.478;2024-01-11T00:51:37;90861.59;;;3.76;80.49
9935;BME280;5006;41.828;23.478;2024-01-11T00:52:42;90857.28;;;3.84;79.51
9935;BME280;5006;41.828;23.478;2024-01-11T00:53:48;90862.03;;;3.66;79.95
9935;BME280;5006;41.828;23.478;2024-01-11T00:54:54;90865.78;;;3.77;80.67
9935;BME280;5006;41.828;23.478;2024-01-11T00:56:01;90863.25;;;3.93;79.91
9935;BME280;5006;41.828;23.478;2024-01-11T00:57:06;90861.69;;;4.16;79.53
9935;BME280;5006;41.828;23.478;2024-01-11T00:58:14;90855.75;;;4.85;78.27
9935;BME280;5006;41.828;23.478;2024-01-11T00:59:20;90861.19;;;5.04;75.75
9935;BME280;5006;41.828;23.478;2024-01-11T01:00:27;90860.97;;;5.09;74.94
9935;BME280;5006;41.828;23.478;2024-01-11T01:01:32;90859.44;;;4.69;74.10
9935;BME280;5006;41.828;23.478;2024-01-11T01:02:38;90857.34;;;4.74;74.78
9935;BME280;5006;41.828;23.478;2024-01-11T01:03:43;90853.97;;;4.62;74.73
9935;BME280;5006;41.828;23.478;2024-01-11T01:04:49;90851.75;;;4.52;76.47
9935;BME280;5006;41.828;23.478;2024-01-11T01:05:55;90852.13;;;4.38;76.44
9935;BME280;5006;41.828;23.478;2024-01-11T01:07:03;90857.03;;;4.64;75.34
9935;BME280;5006;41.828;23.478;2024-01-11T01:08:09;90855.88;;;4.37;75.74
9935;BME280;5006;41.828;23.478;2024-01-11T01:09:16;90858.66;;;4.41;75.63
9935;BME280;5006;41.828;23.478;2024-01-11T01:10:21;90851.97;;;4.86;75.79
9935;BME280;5006;41.828;23.478;2024-01-11T01:11:27;90851.72;;;4.91;74.89
9935;BME280;5006;41.828;23.478;2024-01-11T01:12:32;90856.19;;;4.87;74.22
9935;BME280;5006;41.828;23.478;2024-01-11T01:13:40;90850.75;;;5.11;74.09
9935;BME280;5006;41.828;23.478;2024-01-11T01:14:46;90858.06;;;4.87;73.73
9935;BME280;5006;41.828;23.478;2024-01-11T01:15:53;90854.78;;;5.05;73.06
9935;BME280;5006;41.828;23.478;2024-01-11T01:16:58;90851.72;;;4.64;73.12
9935;BME280;5006;41.828;23.478;2024-01-11T01:18:04;90847.75;;;4.58;73.40
9935;BME280;5006;41.828;23.478;2024-01-11T01:19:10;90848.09;;;4.84;72.67
9935;BME280;5006;41.828;23.478;2024-01-11T01:20:16;90847.97;;;4.65;72.57
9935;BME280;5006;41.828;23.478;2024-01-11T01:21:21;90848.69;;;4.77;72.58
9935;BME280;5006;41.828;23.478;2024-01-11T01:22:28;90852.31;;;4.85;72.10
9935;BME280;5006;41.828;23.478;2024-01-11T01:23:34;90842.94;;;4.48;72.58
9935;BME280;5006;41.828;23.478;2024-01-11T01:24:40;90851.47;;;4.69;72.77
9935;BME280;5006;41.828;23.478;2024-01-11T01:25:45;90843.81;;;4.79;71.95
9935;BME280;5006;41.828;23.478;2024-01-11T01:26:51;90842.84;;;4.72;71.90
9935;BME280;5006;41.828;23.478;2024-01-11T01:27:56;90843.63;;;4.21;72.22
9935;BME280;5006;41.828;23.478;2024-01-11T01:29:05;90840.13;;;3.93;72.81
9935;BME280;5006;41.828;23.478;2024-01-11T01:30:11;90845.13;;;3.95;73.84
9935;BME280;5006;41.828;23.478;2024-01-11T01:31:18;90845.84;;;4.19;75.22
9935;BME280;5006;41.828;23.478;2024-01-11T01:32:24;90839.25;;;4.01;75.77
9935;BME280;5006;41.828;23.478;2024-01-11T01:33:30;90833.50;;;4.11;74.08
9935;BME280;5006;41.828;23.478;2024-01-11T01:34:37;90839.50;;;3.96;74.50
9935;BME280;5006;41.828;23.478;2024-01-11T01:35:43;90833.00;;;4.33;73.75
9935;BME280;5006;41.828;23.478;2024-01-11T01:36:48;90835.78;;;4.24;72.19
9935;BME280;5006;41.828;23.478;2024-01-11T01:37:55;90832.97;;;4.45;73.02
9935;BME280;5006;41.828;23.478;2024-01-11T01:39:00;90833.34;;;4.59;73.39
9935;BME280;5006;41.828;23.478;2024-01-11T01:40:06;90829.03;;;4.66;72.65
9935;BME280;5006;41.828;23.478;2024-01-11T01:41:13;90830.28;;;4.57;72.80
9935;BME280;5006;41.828;23.478;2024-01-11T01:42:19;90828.34;;;4.42;72.77
9935;BME280;5006;41.828;23.478;2024-01-11T01:43:26;90827.31;;;4.46;72.85
9935;BME280;5006;41.828;23.478;2024-01-11T01:44:33;90831.41;;;4.05;72.11
9935;BME280;5006;41.828;23.478;2024-01-11T01:45:39;90825.72;;;4.18;72.76
9935;BME280;5006;41.828;23.478;2024-01-11T01:46:47;90829.50;;;4.17;72.77
9935;BME280;5006;41.828;23.478;2024-01-11T01:47:55;90828.78;;;4.32;73.12
9935;BME280;5006;41.828;23.478;2024-01-11T01:49:01;90827.78;;;4.36;72.32
9935;BME280;5006;41.828;23.478;2024-01-11T01:50:08;90830.31;;;4.45;71.90
9935;BME280;5006;41.828;23.478;2024-01-11T01:51:15;90831.16;;;4.61;71.46
9935;BME280;5006;41.828;23.478;2024-01-11T01:52:22;90828.84;;;4.87;71.12
9935;BME280;5006;41.828;23.478;2024-01-11T01:53:28;90826.72;;;4.92;71.09
9935;BME280;5006;41.828;23.478;2024-01-11T01:54:35;90825.03;;;4.72;70.97
9935;BME280;5006;41.828;23.478;2024-01-11T01:55:40;90824.56;;;4.43;72.47
9935;BME280;5006;41.828;23.478;2024-01-11T01:56:48;90820.59;;;4.49;73.13
9935;BME280;5006;41.828;23.478;2024-01-11T01:57:54;90825.53;;;4.23;73.43
9935;BME280;5006;41.828;23.478;2024-01-11T01:59:03;90830.41;;;4.09;74.89
9935;BME280;5006;41.828;23.478;2024-01-11T02:00:11;90818.41;;;4.39;75.30
9935;BME280;5006;41.828;23.478;2024-01-11T02:01:19;90821.59;;;3.81;76.19
9935;BME280;5006;41.828;23.478;2024-01-11T02:02:27;90819.59;;;4.69;74.06
9935;BME280;5006;41.828;23.478;2024-01-11T02:03:34;90813.72;;;5.03;72.76
9935;BME280;5006;41.828;23.478;2024-01-11T02:04:41;90811.91;;;5.07;72.95
9935;BME280;5006;41.828;23.478;2024-01-11T02:05:47;90817.69;;;5.40;71.54
9935;BME280;5006;41.828;23.478;2024-01-11T02:06:54;90816.00;;;5.47;70.85
9935;BME280;5006;41.828;23.478;2024-01-11T02:08:01;90814.19;;;4.93;71.16
9935;BME280;5006;41.828;23.478;2024-01-11T02:09:11;90809.44;;;5.14;70.96
9935;BME280;5006;41.828;23.478;2024-01-11T02:10:17;90813.81;;;4.79;71.07
9935;BME280;5006;41.828;23.478;2024-01-11T02:11:24;90809.44;;;5.14;71.39
9935;BME280;5006;41.828;23.478;2024-01-11T02:12:29;90818.28;;;5.49;70.70
9935;BME280;5006;41.828;23.478;2024-01-11T02:13:37;90812.47;;;5.74;71.92
9935;BME280;5006;41.828;23.478;2024-01-11T02:14:43;90805.56;;;5.11;71.44
9935;BME280;5006;41.828;23.478;2024-01-11T02:15:51;90804.44;;;4.42;73.24
9935;BME280;5006;41.828;23.478;2024-01-11T02:16:57;90805.09;;;4.51;73.85
9935;BME280;5006;41.828;23.478;2024-01-11T02:18:04;90805.03;;;4.63;73.27
9935;BME280;5006;41.828;23.478;2024-01-11T02:19:13;90803.44;;;4.74;73.56
9935;BME280;5006;41.828;23.478;2024-01-11T02:20:19;90805.31;;;4.73;73.68
9935;BME280;5006;41.828;23.478;2024-01-11T02:21:26;90804.06;;;4.83;73.68
9935;BME280;5006;41.828;23.478;2024-01-11T02:22:35;90810.78;;;4.65;74.28
9935;BME280;5006;41.828;23.478;2024-01-11T02:23:43;90809.72;;;5.40;74.07
9935;BME280;5006;41.828;23.478;2024-01-11T02:24:55;90815.28;;;5.35;73.37
9935;BME280;5006;41.828;23.478;2024-01-11T02:26:03;90804.72;;;4.80;73.82
9935;BME280;5006;41.828;23.478;2024-01-11T02:27:10;90803.88;;;5.19;73.75
9935;BME280;5006;41.828;23.478;2024-01-11T02:28:15;90807.97;;;5.01;72.83
9935;BME280;5006;41.828;23.478;2024-01-11T02:29:22;90806.53;;;5.19;72.53
9935;BME280;5006;41.828;23.478;2024-01-11T02:30:28;90808.59;;;5.25;72.93
9935;BME280;5006;41.828;23.478;2024-01-11T02:31:34;90800.59;;;5.10;73.63
9935;BME280;5006;41.828;23.478;2024-01-11T02:32:40;90801.75;;;4.97;73.05
9935;BME280;5006;41.828;23.478;2024-01-11T02:33:47;90799.03;;;4.66;72.22
9935;BME280;5006;41.828;23.478;2024-01-11T02:34:53;90796.00;;;4.52;72.68
9935;BME280;5006;41.828;23.478;2024-01-11T02:35:59;90801.59;;;4.35;73.10
9935;BME280;5006;41.828;23.478;2024-01-11T02:37:05;90798.41;;;4.29;72.22
9935;BME280;5006;41.828;23.478;2024-01-11T02:38:12;90797.44;;;4.49;72.79
9935;BME280;5006;41.828;23.478;2024-01-11T02:39:19;90791.41;;;4.64;73.14
9935;BME280;5006;41.828;23.478;2024-01-11T02:40:27;90789.91;;;4.79;73.40
9935;BME280;5006;41.828;23.478;2024-01-11T02:41:32;90788.38;;;4.78;72.62
9935;BME280;5006;41.828;23.478;2024-01-11T02:42:39;90785.66;;;4.62;73.68
9935;BME280;5006;41.828;23.478;2024-01-11T02:43:46;90783.94;;;4.54;72.35
9935;BME280;5006;41.828;23.478;2024-01-11T02:44:53;90788.53;;;4.69;72.59
9935;BME280;5006;41.828;23.478;2024-01-11T02:46:00;90782.47;;;4.84;73.15
9935;BME280;5006;41.828;23.478;2024-01-11T02:47:07;90784.97;;;4.65;73.14
9935;BME280;5006;41.828;23.478;2024-01-11T02:48:12;90785.72;;;4.23;74.25
9935;BME280;5006;41.828;23.478;2024-01-11T02:49:19;90778.97;;;4.53;74.23
9935;BME280;5006;41.828;23.478;2024-01-11T02:50:24;90786.63;;;4.70;74.34
9935;BME280;5006;41.828;23.478;2024-01-11T02:51:31;90781.75;;;5.15;74.09
9935;BME280;5006;41.828;23.478;2024-01-11T02:52:37;90784.41;;;5.30;72.77
9935;BME280;5006;41.828;23.478;2024-01-11T02:53:43;90781.78;;;4.87;73.53
9935;BME280;5006;41.828;23.478;2024-01-11T02:54:48;90776.84;;;5.63;72.93
9935;BME280;5006;41.828;23.478;2024-01-11T02:55:56;90773.59;;;4.92;73.23
9935;BME280;5006;41.828;23.478;2024-01-11T02:57:03;90780.72;;;4.61;73.93
9935;BME280;5006;41.828;23.478;2024-01-11T02:58:08;90777.13;;;4.02;75.36
9935;BME280;5006;41.828;23.478;2024-01-11T02:59:16;90776.28;;;4.25;75.13
9935;BME280;5006;41.828;23.478;2024-01-11T03:00:21;90777.06;;;3.63;75.83
9935;BME280;5006;41.828;23.478;2024-01-11T03:01:27;90774.38;;;3.87;75.65
9935;BME280;5006;41.828;23.478;2024-01-11T03:02:32;90776.97;;;3.59;76.46
9935;BME280;5006;41.828;23.478;2024-01-11T03:03:38;90783.72;;;4.08;76.07
9935;BME280;5006;41.828;23.478;2024-01-11T03:04:43;90781.22;;;4.39;75.72
9935;BME280;5006;41.828;23.478;2024-01-11T03:05:49;90779.16;;;4.60;75.44
9935;BME280;5006;41.828;23.478;2024-01-11T03:06:54;90785.56;;;4.31;74.21
9935;BME280;5006;41.828;23.478;2024-01-11T03:08:00;90780.97;;;4.44;75.13
9935;BME280;5006;41.828;23.478;2024-01-11T03:09:07;90781.25;;;4.82;74.36
9935;BME280;5006;41.828;23.478;2024-01-11T03:10:14;90777.31;;;4.91;73.32
9935;BME280;5006;41.828;23.478;2024-01-11T03:11:21;90783.66;;;4.32;74.47
9935;BME280;5006;41.828;23.478;2024-01-11T03:12:28;90783.94;;;4.54;74.05
9935;BME280;5006;41.828;23.478;2024-01-11T03:13:34;90780.28;;;4.74;73.61
9935;BME280;5006;41.828;23.478;2024-01-11T03:14:40;90783.09;;;4.38;74.13
9935;BME280;5006;41.828;23.478;2024-01-11T03:15:46;90780.66;;;3.94;76.02
9935;BME280;5006;41.828;23.478;2024-01-11T03:16:53;90778.81;;;3.83;75.83
9935;BME280;5006;41.828;23.478;2024-01-11T03:17:59;90780.69;;;3.82;76.00
9935;BME280;5006;41.828;23.478;2024-01-11T03:19:05;90774.75;;;4.52;74.59
9935;BME280;5006;41.828;23.478;2024-01-11T03:20:10;90778.81;;;4.61;73.36
9935;BME280;5006;41.828;23.478;2024-01-11T03:21:17;90775.63;;;4.56;73.08
9935;BME280;5006;41.828;23.478;2024-01-11T03:22:23;90780.25;;;4.59;73.31
9935;BME280;5006;41.828;23.478;2024-01-11T03:23:30;90773.13;;;4.47;73.87
9935;BME280;5006;41.828;23.478;2024-01-11T03:24:37;90768.56;;;4.20;74.97
9935;BME280;5006;41.828;23.478;2024-01-11T03:25:45;90760.28;;;4.49;74.29
9935;BME280;5006;41.828;23.478;2024-01-11T03:26:52;90765.16;;;4.75;74.63
9935;BME280;5006;41.828;23.478;2024-01-11T03:27:59;90768.34;;;4.96;74.40
9935;BME280;5006;41.828;23.478;2024-01-11T03:29:04;90765.97;;;4.63;74.64
9935;BME280;5006;41.828;23.478;2024-01-11T03:30:12;90760.16;;;4.73;73.93
9935;BME280;5006;41.828;23.478;2024-01-11T03:31:18;90759.06;;;4.19;74.89
9935;BME280;5006;41.828;23.478;2024-01-11T03:32:25;90767.66;;;4.56;76.38
9935;BME280;5006;41.828;23.478;2024-01-11T03:33:30;90762.97;;;4.65;75.76
9935;BME280;5006;41.828;23.478;2024-01-11T03:34:36;90756.91;;;4.37;75.29
9935;BME280;5006;41.828;23.478;2024-01-11T03:35:41;90754.84;;;3.79;77.74
9935;BME280;5006;41.828;23.478;2024-01-11T03:36:48;90754.28;;;3.86;78.51
9935;BME280;5006;41.828;23.478;2024-01-11T03:37:53;90751.78;;;4.44;77.40
9935;BME280;5006;41.828;23.478;2024-01-11T03:39:00;90758.28;;;4.46;75.81
9935;BME280;5006;41.828;23.478;2024-01-11T03:40:06;90751.81;;;4.59;75.00
9935;BME280;5006;41.828;23.478;2024-01-11T03:41:12;90749.94;;;4.60;74.02
9935;BME280;5006;41.828;23.478;2024-01-11T03:42:19;90751.94;;;4.78;73.46
9935;BME280;5006;41.828;23.478;2024-01-11T03:43:26;90743.53;;;4.61;72.76
9935;BME280;5006;41.828;23.478;2024-01-11T03:44:31;90746.91;;;4.18;73.05
9935;BME280;5006;41.828;23.478;2024-01-11T03:45:38;90749.56;;;4.18;73.63
9935;BME280;5006;41.828;23.478;2024-01-11T03:46:43;90747.06;;;3.98;74.91
9935;BME280;5006;41.828;23.478;2024-01-11T03:47:49;90747.34;;;3.57;75.83
9935;BME280;5006;41.828;23.478;2024-01-11T03:48:55;90749.56;;;3.67;76.12
9935;BME280;5006;41.828;23.478;2024-01-11T03:50:01;90745.00;;;3.92;75.92
9935;BME280;5006;41.828;23.478;2024-01-11T03:51:08;90751.22;;;3.60;76.51
9935;BME280;5006;41.828;23.478;2024-01-11T03:52:15;90748.81;;;3.55;77.94
9935;BME280;5006;41.828;23.478;2024-01-11T03:53:21;90750.31;;;3.92;76.59
9935;BME280;5006;41.828;23.478;2024-01-11T03:54:27;90754.16;;;4.33;76.59
9935;BME280;5006;41.828;23.478;2024-01-11T03:55:32;90746.13;;;4.88;74.46
9935;BME280;5006;41.828;23.478;2024-01-11T03:56:38;90753.31;;;4.18;74.76
9935;BME280;5006;41.828;23.478;2024-01-11T03:57:46;90752.28;;;3.83;75.52
9935;BME280;5006;41.828;23.478;2024-01-11T03:58:52;90749.44;;;4.15;75.91
9935;BME280;5006;41.828;23.478;2024-01-11T03:59:57;90748.09;;;3.82;75.82
9935;BME280;5006;41.828;23.478;2024-01-11T04:01:03;90753.47;;;4.36;75.47
9935;BME280;5006;41.828;23.478;2024-01-11T04:02:09;90747.63;;;4.31;74.31
9935;BME280;5006;41.828;23.478;2024-01-11T04:03:14;90746.09;;;4.57;74.43
9935;BME280;5006;41.828;23.478;2024-01-11T04:04:20;90748.13;;;5.07;73.19
9935;BME280;5006;41.828;23.478;2024-01-11T04:05:26;90752.56;;;5.34;72.02
9935;BME280;5006;41.828;23.478;2024-01-11T04:06:33;90749.59;;;5.20;72.08
9935;BME280;5006;41.828;23.478;2024-01-11T04:07:39;90757.91;;;5.03;71.46
9935;BME280;5006;41.828;23.478;2024-01-11T04:08:45;90747.09;;;5.11;71.27
9935;BME280;5006;41.828;23.478;2024-01-11T04:09:50;90746.69;;;5.25;71.76
9935;BME280;5006;41.828;23.478;2024-01-11T04:10:56;90745.97;;;4.81;71.29
9935;BME280;5006;41.828;23.478;2024-01-11T04:12:02;90749.22;;;4.90;71.17
9935;BME280;5006;41.828;23.478;2024-01-11T04:13:10;90742.69;;;4.45;72.00
9935;BME280;5006;41.828;23.478;2024-01-11T04:14:15;90738.88;;;4.58;70.97
9935;BME280;5006;41.828;23.478;2024-01-11T04:15:21;90738.91;;;4.73;70.95
9935;BME280;5006;41.828;23.478;2024-01-11T04:16:26;90743.59;;;4.64;71.28
9935;BME280;5006;41.828;23.478;2024-01-11T04:17:32;90740.53;;;4.35;72.26
9935;BME280;5006;41.828;23.478;2024-01-11T04:18:38;90742.59;;;4.14;74.94
9935;BME280;5006;41.828;23.478;2024-01-11T04:19:44;90735.31;;;4.11;73.16
9935;BME280;5006;41.828;23.478;2024-01-11T04:20:49;90742.78;;;4.21;74.55
9935;BME280;5006;41.828;23.478;2024-01-11T04:21:55;90741.03;;;4.25;74.86
9935;BME280;5006;41.828;23.478;2024-01-11T04:23:00;90739.09;;;4.96;73.65
9935;BME280;5006;41.828;23.478;2024-01-11T04:24:07;90734.25;;;5.29;72.71
9935;BME280;5006;41.828;23.478;2024-01-11T04:25:12;90735.34;;;5.12;72.58
9935;BME280;5006;41.828;23.478;2024-01-11T04:26:17;90728.41;;;5.08;72.02
9935;BME280;5006;41.828;23.478;2024-01-11T04:27:25;90733.09;;;4.83;72.95
9935;BME280;5006;41.828;23.478;2024-01-11T04:28:32;90731.16;;;4.53;73.58
9935;BME280;5006;41.828;23.478;2024-01-11T04:29:39;90732.66;;;4.66;73.70
9935;BME280;5006;41.828;23.478;2024-01-11T04:30:44;90726.84;;;5.07;72.33
9935;BME280;5006;41.828;23.478;2024-01-11T04:31:51;90740.34;;;5.14;72.39
9935;BME280;5006;41.828;23.478;2024-01-11T04:32:57;90731.91;;;5.27;71.81
9935;BME280;5006;41.828;23.478;2024-01-11T04:34:03;90736.28;;;5.20;71.71
9935;BME280;5006;41.828;23.478;2024-01-11T04:35:10;90741.69;;;5.23;71.18
9935;BME280;5006;41.828;23.478;2024-01-11T04:36:17;90742.47;;;5.24;71.15
9935;BME280;5006;41.828;23.478;2024-01-11T04:37:24;90737.22;;;4.96;71.72
9935;BME280;5006;41.828;23.478;2024-01-11T04:38:29;90736.38;;;5.39;71.21
9935;BME280;5006;41.828;23.478;2024-01-11T04:39:35;90740.63;;;5.59;70.54
9935;BME280;5006;41.828;23.478;2024-01-11T04:40:41;90742.03;;;5.53;70.51
9935;BME280;5006;41.828;23.478;2024-01-11T04:41:48;90741.19;;;5.33;71.09
9935;BME280;5006;41.828;23.478;2024-01-11T04:42:53;90740.59;;;4.93;71.01
9935;BME280;5006;41.828;23.478;2024-01-11T04:44:01;90741.38;;;5.25;71.17
9935;BME280;5006;41.828;23.478;2024-01-11T04:45:07;90747.63;;;5.32;70.84
9935;BME280;5006;41.828;23.478;2024-01-11T04:46:15;90744.34;;;5.08;70.68
9935;BME280;5006;41.828;23.478;2024-01-11T04:47:21;90749.63;;;4.77;71.50
9935;BME280;5006;41.828;23.478;2024-01-11T04:48:27;90745.00;;;4.74;71.54
9935;BME280;5006;41.828;23.478;2024-01-11T04:49:32;90740.91;;;4.92;71.97
9935;BME280;5006;41.828;23.478;2024-01-11T04:50:39;90748.47;;;4.90;71.18
9935;BME280;5006;41.828;23.478;2024-01-11T04:51:44;90740.03;;;4.72;73.49
9935;BME280;5006;41.828;23.478;2024-01-11T04:52:50;90741.72;;;4.65;74.63
9935;BME280;5006;41.828;23.478;2024-01-11T04:53:56;90744.94;;;4.86;72.48
9935;BME280;5006;41.828;23.478;2024-01-11T04:55:02;90744.84;;;4.82;72.26
9935;BME280;5006;41.828;23.478;2024-01-11T04:56:10;90742.84;;;4.64;72.63
9935;BME280;5006;41.828;23.478;2024-01-11T04:57:15;90746.56;;;5.06;71.64
9935;BME280;5006;41.828;23.478;2024-01-11T04:58:22;90742.91;;;5.10;71.77
9935;BME280;5006;41.828;23.478;2024-01-11T04:59:29;90741.56;;;4.73;72.14
9935;BME280;5006;41.828;23.478;2024-01-11T05:00:36;90740.06;;;5.03;71.48
9935;BME280;5006;41.828;23.478;2024-01-11T05:01:42;90744.69;;;5.22;71.67
9935;BME280;5006;41.828;23.478;2024-01-11T05:02:48;90745.38;;;5.03;70.24
9935;BME280;5006;41.828;23.478;2024-01-11T05:03:53;90743.00;;;4.71;71.36
9935;BME280;5006;41.828;23.478;2024-01-11T05:05:00;90735.66;;;4.37;72.19
9935;BME280;5006;41.828;23.478;2024-01-11T05:06:06;90737.16;;;4.22;72.96
9935;BME280;5006;41.828;23.478;2024-01-11T05:07:12;90740.53;;;4.35;73.05
9935;BME280;5006;41.828;23.478;2024-01-11T05:08:17;90737.38;;;4.45;71.87
9935;BME280;5006;41.828;23.478;2024-01-11T05:09:24;90736.66;;;4.05;73.22
9935;BME280;5006;41.828;23.478;2024-01-11T05:10:30;90736.78;;;3.97;72.87
9935;BME280;5006;41.828;23.478;2024-01-11T05:11:36;90733.53;;;4.15;72.88
9935;BME280;5006;41.828;23.478;2024-01-11T05:12:42;90736.72;;;4.48;72.18
9935;BME280;5006;41.828;23.478;2024-01-11T05:13:49;90740.81;;;4.18;72.48
9935;BME280;5006;41.828;23.478;2024-01-11T05:14:56;90730.88;;;4.42;72.07
9935;BME280;5006;41.828;23.478;2024-01-11T05:16:03;90736.94;;;4.43;71.72
9935;BME280;5006;41.828;23.478;2024-01-11T05:17:08;90731.69;;;4.58;72.73
9935;BME280;5006;41.828;23.478;2024-01-11T05:18:14;90735.50;;;4.18;73.12
9935;BME280;5006;41.828;23.478;2024-01-11T05:19:19;90732.59;;;3.96;74.63
9935;BME280;5006;41.828;23.478;2024-01-11T05:20:25;90725.31;;;3.93;75.27
9935;BME280;5006;41.828;23.478;2024-01-11T05:21:30;90724.19;;;3.42;74.95
9935;BME280;5006;41.828;23.478;2024-01-11T05:22:37;90725.91;;;3.74;74.53
9935;BME280;5006;41.828;23.478;2024-01-11T05:23:42;90724.38;;;4.01;74.79
9935;BME280;5006;41.828;23.478;2024-01-11T05:24:48;90721.72;;;4.40;73.34
9935;BME280;5006;41.828;23.478;2024-01-11T05:25:54;90723.53;;;4.51;72.76
9935;BME280;5006;41.828;23.478;2024-01-11T05:27:00;90723.97;;;4.26;73.90
9935;BME280;5006;41.828;23.478;2024-01-11T05:28:07;90714.47;;;4.25;74.82
9935;BME280;5006;41.828;23.478;2024-01-11T05:29:13;90708.84;;;3.87;75.32
9935;BME280;5006;41.828;23.478;2024-01-11T05:30:21;90709.38;;;3.53;76.83
9935;BME280;5006;41.828;23.478;2024-01-11T05:31:26;90714.56;;;3.50;77.50
9935;BME280;5006;41.828;23.478;2024-01-11T05:32:33;90712.59;;;3.35;77.14
9935;BME280;5006;41.828;23.478;2024-01-11T05:33:39;90718.53;;;3.56;77.32
9935;BME280;5006;41.828;23.478;2024-01-11T05:34:45;90716.94;;;3.79;76.79
9935;BME280;5006;41.828;23.478;2024-01-11T05:35:51;90716.50;;;3.77;77.23
9935;BME280;5006;41.828;23.478;2024-01-11T05:37:00;90709.19;;;3.34;77.75
9935;BME280;5006;41.828;23.478;2024-01-11T05:38:05;90715.06;;;3.79;77.71
9935;BME280;5006;41.828;23.478;2024-01-11T05:39:12;90709.63;;;3.88;77.07
9935;BME280;5006;41.828;23.478;2024-01-11T05:40:17;90713.50;;;3.90;77.29
9935;BME280;5006;41.828;23.478;2024-01-11T05:41:24;90705.34;;;4.38;76.43
9935;BME280;5006;41.828;23.478;2024-01-11T05:42:30;90704.44;;;4.61;74.70
9935;BME280;5006;41.828;23.478;2024-01-11T05:43:37;90700.50;;;4.55;73.70
9935;BME280;5006;41.828;23.478;2024-01-11T05:44:44;90702.56;;;4.77;73.06
9935;BME280;5006;41.828;23.478;2024-01-11T05:45:53;90707.03;;;5.04;72.14
9935;BME280;5006;41.828;23.478;2024-01-11T05:46:59;90702.94;;;4.91;71.72
9935;BME280;5006;41.828;23.478;2024-01-11T05:48:06;90711.09;;;5.14;71.61
9935;BME280;5006;41.828;23.478;2024-01-11T05:49:11;90716.84;;;5.16;72.05
9935;BME280;5006;41.828;23.478;2024-01-11T05:50:17;90701.22;;;5.14;71.98
9935;BME280;5006;41.828;23.478;2024-01-11T05:51:22;90712.19;;;5.28;71.88
9935;BME280;5006;41.828;23.478;2024-01-11T05:52:28;90707.66;;;5.13;70.89
9935;BME280;5006;41.828;23.478;2024-01-11T05:53:33;90705.09;;;4.86;72.09
9935;BME280;5006;41.828;23.478;2024-01-11T05:54:40;90707.22;;;4.37;73.06
9935;BME280;5006;41.828;23.478;2024-01-11T05:55:45;90706.78;;;4.63;72.80
9935;BME280;5006;41.828;23.478;2024-01-11T05:56:51;90703.97;;;3.89;72.29
9935;BME280;5006;41.828;23.478;2024-01-11T05:58:01;90702.19;;;3.66;74.25
9935;BME280;5006;41.828;23.478;2024-01-11T05:59:07;90702.94;;;4.33;74.05
9935;BME280;5006;41.828;23.478;2024-01-11T06:00:13;90709.00;;;3.79;74.40
9935;BME280;5006;41.828;23.478;2024-01-11T06:01:21;90699.31;;;3.59;76.01